sensor_id;sensor_type;location;lat;lon;timestamp;P1;durP1;ratioP1;P2;durP2;ratioP2
32641;SDS011;19323;56.072;9.698;2022-08-23T00:01:48;1.27;;;0.40;;
32641;SDS011;19323;56.072;9.698;2022-08-23T00:04:28;0.88;;;0.30;;
32641;SDS011;19323;56.072;9.698;2022-08-23T00:07:00;1.02;;;0.50;;
32641;SDS011;19323;56.072;9.698;2022-08-23T00:09:28;1.20;;;0.60;;
32641;SDS011;19323;56.072;9.698;2022-08-23T00:12:04;1.35;;;0.52;;
32641;SDS011;19323;56.072;9.698;2022-08-23T00:14:37;1.15;;;0.50;;
32641;SDS011;19323;56.072;9.698;2022-08-23T00:17:08;1.25;;;0.63;;
32641;SDS011;19323;56.072;9.698;2022-08-23T00:19:35;1.60;;;0.70;;
32641;SDS011;19323;56.072;9.698;2022-08-23T00:22:03;3.17;;;0.77;;
32641;SDS011;19323;56.072;9.698;2022-08-23T00:24:30;1.73;;;0.80;;
32641;SDS011;19323;56.072;9.698;2022-08-23T00:29:27;0.93;;;0.50;;
32641;SDS011;19323;56.072;9.698;2022-08-23T00:32:01;2.75;;;0.50;;
32641;SDS011;19323;56.072;9.698;2022-08-23T00:34:28;0.85;;;0.40;;
32641;SDS011;19323;56.072;9.698;2022-08-23T00:36:55;2.60;;;0.70;;
32641;SDS011;19323;56.072;9.698;2022-08-23T00:39:22;1.92;;;0.50;;
32641;SDS011;19323;56.072;9.698;2022-08-23T00:41:49;0.93;;;0.40;;
32641;SDS011;19323;56.072;9.698;2022-08-23T00:44:29;0.95;;;0.45;;
32641;SDS011;19323;56.072;9.698;2022-08-23T00:47:17;2.13;;;0.45;;
32641;SDS011;19323;56.072;9.698;2022-08-23T00:55:41;0.90;;;0.40;;
32641;SDS011;19323;56.072;9.698;2022-08-23T00:58:11;1.05;;;0.52;;
32641;SDS011;19323;56.072;9.698;2022-08-23T01:00:41;1.00;;;0.40;;
32641;SDS011;19323;56.072;9.698;2022-08-23T01:03:08;0.70;;;0.60;;
32641;SDS011;19323;56.072;9.698;2022-08-23T01:05:42;1.48;;;0.50;;
32641;SDS011;19323;56.072;9.698;2022-08-23T01:08:21;1.30;;;0.50;;
32641;SDS011;19323;56.072;9.698;2022-08-23T01:10:54;1.05;;;0.50;;
32641;SDS011;19323;56.072;9.698;2022-08-23T01:13:31;0.40;;;0.30;;
32641;SDS011;19323;56.072;9.698;2022-08-23T01:18:59;0.80;;;0.60;;
32641;SDS011;19323;56.072;9.698;2022-08-23T01:21:39;1.52;;;0.57;;
32641;SDS011;19323;56.072;9.698;2022-08-23T01:26:59;1.25;;;0.60;;
32641;SDS011;19323;56.072;9.698;2022-08-23T01:29:25;0.88;;;0.52;;
32641;SDS011;19323;56.072;9.698;2022-08-23T01:31:52;0.50;;;0.40;;
32641;SDS011;19323;56.072;9.698;2022-08-23T01:34:24;0.77;;;0.50;;
32641;SDS011;19323;56.072;9.698;2022-08-23T01:36:53;1.92;;;0.68;;
32641;SDS011;19323;56.072;9.698;2022-08-23T01:39:20;1.08;;;0.45;;
32641;SDS011;19323;56.072;9.698;2022-08-23T01:41:47;1.13;;;0.50;;
32641;SDS011;19323;56.072;9.698;2022-08-23T01:44:13;0.82;;;0.57;;
32641;SDS011;19323;56.072;9.698;2022-08-23T01:46:42;2.05;;;0.85;;
32641;SDS011;19323;56.072;9.698;2022-08-23T01:49:10;1.40;;;0.30;;
32641;SDS011;19323;56.072;9.698;2022-08-23T01:51:38;1.27;;;0.82;;
32641;SDS011;19323;56.072;9.698;2022-08-23T01:54:05;0.90;;;0.60;;
32641;SDS011;19323;56.072;9.698;2022-08-23T01:56:31;0.93;;;0.40;;
32641;SDS011;19323;56.072;9.698;2022-08-23T01:59:05;0.77;;;0.40;;
32641;SDS011;19323;56.072;9.698;2022-08-23T02:01:33;0.90;;;0.57;;
32641;SDS011;19323;56.072;9.698;2022-08-23T02:03:59;1.42;;;0.57;;
32641;SDS011;19323;56.072;9.698;2022-08-23T02:06:30;1.40;;;0.70;;
32641;SDS011;19323;56.072;9.698;2022-08-23T02:08:57;0.70;;;0.47;;
32641;SDS011;19323;56.072;9.698;2022-08-23T02:11:30;0.77;;;0.40;;
32641;SDS011;19323;56.072;9.698;2022-08-23T02:14:03;1.15;;;0.40;;
32641;SDS011;19323;56.072;9.698;2022-08-23T02:16:40;0.88;;;0.30;;
32641;SDS011;19323;56.072;9.698;2022-08-23T02:19:29;0.60;;;0.35;;
32641;SDS011;19323;56.072;9.698;2022-08-23T02:21:55;0.55;;;0.28;;
32641;SDS011;19323;56.072;9.698;2022-08-23T02:24:23;1.45;;;0.60;;
32641;SDS011;19323;56.072;9.698;2022-08-23T02:26:51;1.27;;;0.50;;
32641;SDS011;19323;56.072;9.698;2022-08-23T02:29:22;1.05;;;0.52;;
32641;SDS011;19323;56.072;9.698;2022-08-23T02:31:51;0.65;;;0.57;;
32641;SDS011;19323;56.072;9.698;2022-08-23T02:34:18;2.92;;;0.50;;
32641;SDS011;19323;56.072;9.698;2022-08-23T02:36:45;0.63;;;0.40;;
32641;SDS011;19323;56.072;9.698;2022-08-23T02:39:12;0.85;;;0.40;;
32641;SDS011;19323;56.072;9.698;2022-08-23T02:41:40;0.70;;;0.60;;
32641;SDS011;19323;56.072;9.698;2022-08-23T02:44:08;1.92;;;0.35;;
32641;SDS011;19323;56.072;9.698;2022-08-23T02:46:36;1.08;;;0.30;;
32641;SDS011;19323;56.072;9.698;2022-08-23T02:49:03;1.35;;;0.47;;
32641;SDS011;19323;56.072;9.698;2022-08-23T02:51:32;1.27;;;0.50;;
32641;SDS011;19323;56.072;9.698;2022-08-23T02:53:59;0.60;;;0.22;;
32641;SDS011;19323;56.072;9.698;2022-08-23T02:56:26;0.45;;;0.35;;
32641;SDS011;19323;56.072;9.698;2022-08-23T02:58:52;0.80;;;0.30;;
32641;SDS011;19323;56.072;9.698;2022-08-23T03:01:22;0.98;;;0.40;;
32641;SDS011;19323;56.072;9.698;2022-08-23T03:03:51;0.88;;;0.47;;
32641;SDS011;19323;56.072;9.698;2022-08-23T03:06:18;0.65;;;0.50;;
32641;SDS011;19323;56.072;9.698;2022-08-23T03:08:51;1.25;;;0.60;;
32641;SDS011;19323;56.072;9.698;2022-08-23T03:11:18;2.00;;;0.40;;
32641;SDS011;19323;56.072;9.698;2022-08-23T03:13:47;0.40;;;0.30;;
32641;SDS011;19323;56.072;9.698;2022-08-23T03:16:17;0.82;;;0.40;;
32641;SDS011;19323;56.072;9.698;2022-08-23T03:18:47;1.10;;;0.30;;
32641;SDS011;19323;56.072;9.698;2022-08-23T03:21:14;1.00;;;0.75;;
32641;SDS011;19323;56.072;9.698;2022-08-23T03:23:41;0.93;;;0.40;;
32641;SDS011;19323;56.072;9.698;2022-08-23T03:26:08;1.17;;;0.30;;
32641;SDS011;19323;56.072;9.698;2022-08-23T03:28:37;1.10;;;0.40;;
32641;SDS011;19323;56.072;9.698;2022-08-23T03:31:06;0.88;;;0.30;;
32641;SDS011;19323;56.072;9.698;2022-08-23T03:33:33;0.30;;;0.30;;
32641;SDS011;19323;56.072;9.698;2022-08-23T03:36:01;0.47;;;0.30;;
32641;SDS011;19323;56.072;9.698;2022-08-23T03:38:29;1.98;;;0.63;;
32641;SDS011;19323;56.072;9.698;2022-08-23T03:40:56;1.15;;;0.40;;
32641;SDS011;19323;56.072;9.698;2022-08-23T03:43:23;1.42;;;0.65;;
32641;SDS011;19323;56.072;9.698;2022-08-23T03:45:50;0.70;;;0.40;;
32641;SDS011;19323;56.072;9.698;2022-08-23T03:48:16;0.75;;;0.25;;
32641;SDS011;19323;56.072;9.698;2022-08-23T03:50:43;0.82;;;0.20;;
32641;SDS011;19323;56.072;9.698;2022-08-23T03:53:09;1.30;;;0.43;;
32641;SDS011;19323;56.072;9.698;2022-08-23T03:55:38;1.08;;;0.30;;
32641;SDS011;19323;56.072;9.698;2022-08-23T03:58:08;1.00;;;0.35;;
32641;SDS011;19323;56.072;9.698;2022-08-23T04:00:35;0.80;;;0.45;;
32641;SDS011;19323;56.072;9.698;2022-08-23T04:03:01;2.75;;;0.40;;
32641;SDS011;19323;56.072;9.698;2022-08-23T04:05:28;2.30;;;0.55;;
32641;SDS011;19323;56.072;9.698;2022-08-23T04:07:54;1.77;;;0.38;;
32641;SDS011;19323;56.072;9.698;2022-08-23T04:10:21;1.13;;;0.43;;
32641;SDS011;19323;56.072;9.698;2022-08-23T04:12:47;2.17;;;0.40;;
32641;SDS011;19323;56.072;9.698;2022-08-23T04:15:14;2.58;;;0.40;;
32641;SDS011;19323;56.072;9.698;2022-08-23T04:17:41;0.85;;;0.50;;
32641;SDS011;19323;56.072;9.698;2022-08-23T04:20:08;4.07;;;0.57;;
32641;SDS011;19323;56.072;9.698;2022-08-23T04:22:34;1.33;;;0.50;;
32641;SDS011;19323;56.072;9.698;2022-08-23T04:25:01;1.35;;;0.55;;
32641;SDS011;19323;56.072;9.698;2022-08-23T04:27:28;1.75;;;0.70;;
32641;SDS011;19323;56.072;9.698;2022-08-23T04:29:54;1.88;;;0.22;;
32641;SDS011;19323;56.072;9.698;2022-08-23T04:32:21;1.67;;;0.57;;
32641;SDS011;19323;56.072;9.698;2022-08-23T04:34:53;1.83;;;0.75;;
32641;SDS011;19323;56.072;9.698;2022-08-23T04:37:20;1.85;;;0.52;;
32641;SDS011;19323;56.072;9.698;2022-08-23T04:39:46;1.10;;;0.90;;
32641;SDS011;19323;56.072;9.698;2022-08-23T04:42:31;2.72;;;0.60;;
32641;SDS011;19323;56.072;9.698;2022-08-23T04:44:58;3.28;;;0.93;;
32641;SDS011;19323;56.072;9.698;2022-08-23T04:47:26;5.05;;;0.77;;
32641;SDS011;19323;56.072;9.698;2022-08-23T04:49:52;2.38;;;0.60;;
32641;SDS011;19323;56.072;9.698;2022-08-23T04:52:19;2.10;;;0.70;;
32641;SDS011;19323;56.072;9.698;2022-08-23T04:54:45;2.88;;;0.68;;
32641;SDS011;19323;56.072;9.698;2022-08-23T04:57:12;1.25;;;0.45;;
32641;SDS011;19323;56.072;9.698;2022-08-23T04:59:40;1.58;;;0.65;;
32641;SDS011;19323;56.072;9.698;2022-08-23T05:02:08;1.55;;;0.55;;
32641;SDS011;19323;56.072;9.698;2022-08-23T05:04:34;1.30;;;0.40;;
32641;SDS011;19323;56.072;9.698;2022-08-23T05:07:01;5.55;;;1.08;;
32641;SDS011;19323;56.072;9.698;2022-08-23T05:09:28;0.75;;;0.40;;
32641;SDS011;19323;56.072;9.698;2022-08-23T05:11:54;1.25;;;0.40;;
32641;SDS011;19323;56.072;9.698;2022-08-23T05:14:21;0.70;;;0.40;;
32641;SDS011;19323;56.072;9.698;2022-08-23T05:16:47;6.10;;;1.02;;
32641;SDS011;19323;56.072;9.698;2022-08-23T05:19:14;2.08;;;0.80;;
32641;SDS011;19323;56.072;9.698;2022-08-23T05:21:40;2.65;;;0.88;;
32641;SDS011;19323;56.072;9.698;2022-08-23T05:24:07;4.55;;;0.52;;
32641;SDS011;19323;56.072;9.698;2022-08-23T05:26:39;2.33;;;0.40;;
32641;SDS011;19323;56.072;9.698;2022-08-23T05:29:06;5.80;;;1.38;;
32641;SDS011;19323;56.072;9.698;2022-08-23T05:31:32;3.75;;;1.20;;
32641;SDS011;19323;56.072;9.698;2022-08-23T05:33:59;2.50;;;0.60;;
32641;SDS011;19323;56.072;9.698;2022-08-23T05:36:26;1.05;;;0.50;;
32641;SDS011;19323;56.072;9.698;2022-08-23T05:38:52;2.85;;;0.77;;
32641;SDS011;19323;56.072;9.698;2022-08-23T05:41:19;1.60;;;0.68;;
32641;SDS011;19323;56.072;9.698;2022-08-23T05:43:51;2.17;;;0.40;;
32641;SDS011;19323;56.072;9.698;2022-08-23T05:46:18;2.65;;;0.43;;
32641;SDS011;19323;56.072;9.698;2022-08-23T05:48:46;3.28;;;0.90;;
32641;SDS011;19323;56.072;9.698;2022-08-23T05:51:26;6.40;;;0.60;;
32641;SDS011;19323;56.072;9.698;2022-08-23T05:53:56;0.93;;;0.60;;
32641;SDS011;19323;56.072;9.698;2022-08-23T05:56:35;4.65;;;1.65;;
32641;SDS011;19323;56.072;9.698;2022-08-23T05:59:05;2.53;;;0.55;;
32641;SDS011;19323;56.072;9.698;2022-08-23T06:01:38;1.98;;;0.80;;
32641;SDS011;19323;56.072;9.698;2022-08-23T06:04:06;2.85;;;0.50;;
32641;SDS011;19323;56.072;9.698;2022-08-23T06:06:37;1.15;;;0.50;;
32641;SDS011;19323;56.072;9.698;2022-08-23T06:09:05;2.13;;;0.65;;
32641;SDS011;19323;56.072;9.698;2022-08-23T06:11:34;1.67;;;0.55;;
32641;SDS011;19323;56.072;9.698;2022-08-23T06:14:02;2.60;;;1.25;;
32641;SDS011;19323;56.072;9.698;2022-08-23T06:16:31;2.97;;;0.52;;
32641;SDS011;19323;56.072;9.698;2022-08-23T06:19:00;1.05;;;0.40;;
32641;SDS011;19323;56.072;9.698;2022-08-23T06:21:27;1.08;;;0.40;;
32641;SDS011;19323;56.072;9.698;2022-08-23T06:23:55;2.28;;;0.55;;
32641;SDS011;19323;56.072;9.698;2022-08-23T06:26:23;1.63;;;0.60;;
32641;SDS011;19323;56.072;9.698;2022-08-23T06:28:53;1.63;;;0.60;;
32641;SDS011;19323;56.072;9.698;2022-08-23T06:31:22;1.48;;;0.40;;
32641;SDS011;19323;56.072;9.698;2022-08-23T06:34:09;1.95;;;0.90;;
32641;SDS011;19323;56.072;9.698;2022-08-23T06:36:38;0.95;;;0.45;;
32641;SDS011;19323;56.072;9.698;2022-08-23T06:39:05;1.83;;;0.55;;
32641;SDS011;19323;56.072;9.698;2022-08-23T06:41:33;1.60;;;0.57;;
32641;SDS011;19323;56.072;9.698;2022-08-23T06:44:00;0.90;;;0.60;;
32641;SDS011;19323;56.072;9.698;2022-08-23T06:46:29;2.53;;;0.57;;
32641;SDS011;19323;56.072;9.698;2022-08-23T06:48:55;5.55;;;0.50;;
32641;SDS011;19323;56.072;9.698;2022-08-23T06:51:33;2.35;;;0.63;;
32641;SDS011;19323;56.072;9.698;2022-08-23T06:56:28;3.30;;;0.63;;
32641;SDS011;19323;56.072;9.698;2022-08-23T06:58:55;1.42;;;0.75;;
32641;SDS011;19323;56.072;9.698;2022-08-23T07:01:27;3.15;;;0.68;;
32641;SDS011;19323;56.072;9.698;2022-08-23T07:04:12;1.90;;;0.50;;
32641;SDS011;19323;56.072;9.698;2022-08-23T07:06:40;1.73;;;0.70;;
32641;SDS011;19323;56.072;9.698;2022-08-23T07:09:07;0.90;;;0.50;;
32641;SDS011;19323;56.072;9.698;2022-08-23T07:11:33;1.38;;;0.90;;
32641;SDS011;19323;56.072;9.698;2022-08-23T07:14:02;0.70;;;0.40;;
32641;SDS011;19323;56.072;9.698;2022-08-23T07:16:34;0.80;;;0.57;;
32641;SDS011;19323;56.072;9.698;2022-08-23T07:19:02;0.88;;;0.32;;
32641;SDS011;19323;56.072;9.698;2022-08-23T07:21:29;0.60;;;0.20;;
32641;SDS011;19323;56.072;9.698;2022-08-23T07:23:56;1.02;;;0.43;;
32641;SDS011;19323;56.072;9.698;2022-08-23T07:26:23;1.42;;;0.60;;
32641;SDS011;19323;56.072;9.698;2022-08-23T07:28:52;1.42;;;0.60;;
32641;SDS011;19323;56.072;9.698;2022-08-23T07:31:20;1.17;;;0.55;;
32641;SDS011;19323;56.072;9.698;2022-08-23T07:33:53;1.35;;;0.75;;
32641;SDS011;19323;56.072;9.698;2022-08-23T07:36:24;1.73;;;0.47;;
32641;SDS011;19323;56.072;9.698;2022-08-23T07:38:53;0.82;;;0.40;;
32641;SDS011;19323;56.072;9.698;2022-08-23T07:41:21;2.85;;;0.70;;
32641;SDS011;19323;56.072;9.698;2022-08-23T07:43:49;2.08;;;0.50;;
32641;SDS011;19323;56.072;9.698;2022-08-23T07:46:16;0.75;;;0.40;;
32641;SDS011;19323;56.072;9.698;2022-08-23T07:48:43;1.10;;;0.70;;
32641;SDS011;19323;56.072;9.698;2022-08-23T07:51:19;2.90;;;0.70;;
32641;SDS011;19323;56.072;9.698;2022-08-23T07:53:46;1.88;;;0.60;;
32641;SDS011;19323;56.072;9.698;2022-08-23T07:56:13;1.65;;;0.75;;
32641;SDS011;19323;56.072;9.698;2022-08-23T07:58:41;2.30;;;1.00;;
32641;SDS011;19323;56.072;9.698;2022-08-23T08:01:12;2.17;;;1.17;;
32641;SDS011;19323;56.072;9.698;2022-08-23T08:03:42;3.08;;;2.10;;
32641;SDS011;19323;56.072;9.698;2022-08-23T08:06:10;3.50;;;1.92;;
32641;SDS011;19323;56.072;9.698;2022-08-23T08:08:42;5.72;;;1.80;;
32641;SDS011;19323;56.072;9.698;2022-08-23T08:11:09;6.50;;;2.80;;
32641;SDS011;19323;56.072;9.698;2022-08-23T08:13:38;5.50;;;2.38;;
32641;SDS011;19323;56.072;9.698;2022-08-23T08:16:05;2.38;;;1.33;;
32641;SDS011;19323;56.072;9.698;2022-08-23T08:18:34;4.10;;;1.75;;
32641;SDS011;19323;56.072;9.698;2022-08-23T08:21:02;4.05;;;2.08;;
32641;SDS011;19323;56.072;9.698;2022-08-23T08:23:30;2.85;;;1.92;;
32641;SDS011;19323;56.072;9.698;2022-08-23T08:26:00;5.18;;;2.60;;
32641;SDS011;19323;56.072;9.698;2022-08-23T08:28:32;4.40;;;2.17;;
32641;SDS011;19323;56.072;9.698;2022-08-23T08:30:59;2.45;;;1.75;;
32641;SDS011;19323;56.072;9.698;2022-08-23T08:33:26;3.30;;;1.88;;
32641;SDS011;19323;56.072;9.698;2022-08-23T08:35:56;6.05;;;2.20;;
32641;SDS011;19323;56.072;9.698;2022-08-23T08:38:27;3.22;;;1.90;;
32641;SDS011;19323;56.072;9.698;2022-08-23T08:41:17;5.43;;;1.92;;
32641;SDS011;19323;56.072;9.698;2022-08-23T08:44:21;2.95;;;1.70;;
32641;SDS011;19323;56.072;9.698;2022-08-23T08:46:43;2.55;;;1.50;;
32641;SDS011;19323;56.072;9.698;2022-08-23T08:49:13;3.10;;;2.00;;
32641;SDS011;19323;56.072;9.698;2022-08-23T08:51:50;2.88;;;1.92;;
32641;SDS011;19323;56.072;9.698;2022-08-23T08:54:19;2.80;;;1.70;;
32641;SDS011;19323;56.072;9.698;2022-08-23T08:56:50;3.40;;;2.00;;
32641;SDS011;19323;56.072;9.698;2022-08-23T08:59:20;2.45;;;1.75;;
32641;SDS011;19323;56.072;9.698;2022-08-23T09:02:07;2.45;;;1.85;;
32641;SDS011;19323;56.072;9.698;2022-08-23T09:04:57;2.95;;;1.50;;
32641;SDS011;19323;56.072;9.698;2022-08-23T09:16:19;2.13;;;1.35;;
32641;SDS011;19323;56.072;9.698;2022-08-23T09:18:54;3.28;;;2.17;;
32641;SDS011;19323;56.072;9.698;2022-08-23T09:21:21;2.63;;;1.75;;
32641;SDS011;19323;56.072;9.698;2022-08-23T09:23:49;3.17;;;1.65;;
32641;SDS011;19323;56.072;9.698;2022-08-23T09:26:29;2.78;;;1.70;;
32641;SDS011;19323;56.072;9.698;2022-08-23T09:29:04;1.85;;;1.35;;
32641;SDS011;19323;56.072;9.698;2022-08-23T09:31:43;2.40;;;1.35;;
32641;SDS011;19323;56.072;9.698;2022-08-23T09:34:17;1.92;;;1.33;;
32641;SDS011;19323;56.072;9.698;2022-08-23T09:39:29;1.73;;;1.10;;
32641;SDS011;19323;56.072;9.698;2022-08-23T09:41:57;2.25;;;1.20;;
32641;SDS011;19323;56.072;9.698;2022-08-23T09:47:11;2.50;;;1.30;;
32641;SDS011;19323;56.072;9.698;2022-08-23T09:49:40;1.80;;;1.35;;
32641;SDS011;19323;56.072;9.698;2022-08-23T09:52:11;3.20;;;1.90;;
32641;SDS011;19323;56.072;9.698;2022-08-23T09:54:58;3.42;;;1.70;;
32641;SDS011;19323;56.072;9.698;2022-08-23T09:57:28;2.53;;;1.85;;
32641;SDS011;19323;56.072;9.698;2022-08-23T09:59:59;2.58;;;1.45;;
32641;SDS011;19323;56.072;9.698;2022-08-23T10:02:42;1.95;;;1.25;;
32641;SDS011;19323;56.072;9.698;2022-08-23T10:05:29;2.03;;;1.33;;
32641;SDS011;19323;56.072;9.698;2022-08-23T10:08:02;3.42;;;1.30;;
32641;SDS011;19323;56.072;9.698;2022-08-23T10:10:43;2.10;;;1.17;;
32641;SDS011;19323;56.072;9.698;2022-08-23T10:13:16;1.38;;;1.10;;
32641;SDS011;19323;56.072;9.698;2022-08-23T10:18:47;1.50;;;1.00;;
32641;SDS011;19323;56.072;9.698;2022-08-23T10:24:19;3.25;;;1.00;;
32641;SDS011;19323;56.072;9.698;2022-08-23T10:32:20;1.73;;;1.23;;
32641;SDS011;19323;56.072;9.698;2022-08-23T10:35:05;2.35;;;1.10;;
32641;SDS011;19323;56.072;9.698;2022-08-23T10:40:18;2.50;;;0.90;;
32641;SDS011;19323;56.072;9.698;2022-08-23T10:45:40;1.35;;;1.08;;
32641;SDS011;19323;56.072;9.698;2022-08-23T10:48:24;1.13;;;0.80;;
32641;SDS011;19323;56.072;9.698;2022-08-23T10:50:58;1.03;;;0.83;;
32641;SDS011;19323;56.072;9.698;2022-08-23T10:53:33;1.65;;;1.05;;
32641;SDS011;19323;56.072;9.698;2022-08-23T10:56:03;1.33;;;1.15;;
32641;SDS011;19323;56.072;9.698;2022-08-23T11:01:23;1.00;;;0.80;;
32641;SDS011;19323;56.072;9.698;2022-08-23T11:03:59;1.60;;;0.70;;
32641;SDS011;19323;56.072;9.698;2022-08-23T11:09:08;2.78;;;0.98;;
32641;SDS011;19323;56.072;9.698;2022-08-23T11:15:00;1.30;;;0.75;;
32641;SDS011;19323;56.072;9.698;2022-08-23T11:17:25;1.50;;;1.02;;
32641;SDS011;19323;56.072;9.698;2022-08-23T11:19:56;1.05;;;0.93;;
32641;SDS011;19323;56.072;9.698;2022-08-23T11:27:32;1.60;;;0.90;;
32641;SDS011;19323;56.072;9.698;2022-08-23T11:33:20;1.10;;;0.80;;
32641;SDS011;19323;56.072;9.698;2022-08-23T11:35:54;2.45;;;0.90;;
32641;SDS011;19323;56.072;9.698;2022-08-23T11:43:41;1.33;;;1.02;;
32641;SDS011;19323;56.072;9.698;2022-08-23T12:03:28;1.42;;;1.33;;
32641;SDS011;19323;56.072;9.698;2022-08-23T12:06:03;1.55;;;0.98;;
32641;SDS011;19323;56.072;9.698;2022-08-23T12:11:16;1.67;;;0.90;;
32641;SDS011;19323;56.072;9.698;2022-08-23T12:14:00;1.02;;;0.80;;
32641;SDS011;19323;56.072;9.698;2022-08-23T12:16:48;1.25;;;0.73;;
32641;SDS011;19323;56.072;9.698;2022-08-23T12:19:19;0.75;;;0.68;;
32641;SDS011;19323;56.072;9.698;2022-08-23T12:22:10;1.55;;;1.20;;
32641;SDS011;19323;56.072;9.698;2022-08-23T12:24:43;2.90;;;1.27;;
32641;SDS011;19323;56.072;9.698;2022-08-23T12:32:34;2.00;;;1.17;;
32641;SDS011;19323;56.072;9.698;2022-08-23T12:38:02;1.75;;;0.98;;
32641;SDS011;19323;56.072;9.698;2022-08-23T12:43:29;0.60;;;0.57;;
32641;SDS011;19323;56.072;9.698;2022-08-23T12:45:59;1.27;;;0.93;;
32641;SDS011;19323;56.072;9.698;2022-08-23T12:48:31;0.90;;;0.70;;
32641;SDS011;19323;56.072;9.698;2022-08-23T12:51:05;1.73;;;0.93;;
32641;SDS011;19323;56.072;9.698;2022-08-23T12:53:34;1.30;;;0.90;;
32641;SDS011;19323;56.072;9.698;2022-08-23T12:56:11;1.17;;;0.80;;
32641;SDS011;19323;56.072;9.698;2022-08-23T12:58:47;1.48;;;0.85;;
32641;SDS011;19323;56.072;9.698;2022-08-23T13:04:03;1.02;;;0.60;;
32641;SDS011;19323;56.072;9.698;2022-08-23T13:06:35;1.63;;;0.80;;
32641;SDS011;19323;56.072;9.698;2022-08-23T13:09:11;0.90;;;0.73;;
32641;SDS011;19323;56.072;9.698;2022-08-23T13:11:43;0.93;;;0.82;;
32641;SDS011;19323;56.072;9.698;2022-08-23T13:14:20;1.73;;;0.75;;
32641;SDS011;19323;56.072;9.698;2022-08-23T13:16:49;1.67;;;0.85;;
32641;SDS011;19323;56.072;9.698;2022-08-23T13:19:18;2.53;;;1.40;;
32641;SDS011;19323;56.072;9.698;2022-08-23T13:22:09;2.03;;;0.73;;
32641;SDS011;19323;56.072;9.698;2022-08-23T13:24:42;3.45;;;0.50;;
32641;SDS011;19323;56.072;9.698;2022-08-23T13:27:16;3.60;;;0.40;;
32641;SDS011;19323;56.072;9.698;2022-08-23T13:35:26;1.52;;;1.23;;
32641;SDS011;19323;56.072;9.698;2022-08-23T13:40:52;3.35;;;0.88;;
32641;SDS011;19323;56.072;9.698;2022-08-23T13:49:13;1.15;;;0.70;;
32641;SDS011;19323;56.072;9.698;2022-08-23T13:54:45;3.30;;;0.75;;
32641;SDS011;19323;56.072;9.698;2022-08-23T13:57:17;2.50;;;0.43;;
32641;SDS011;19323;56.072;9.698;2022-08-23T13:59:51;1.38;;;0.90;;
32641;SDS011;19323;56.072;9.698;2022-08-23T14:02:20;3.28;;;0.70;;
32641;SDS011;19323;56.072;9.698;2022-08-23T14:04:48;1.10;;;0.50;;
32641;SDS011;19323;56.072;9.698;2022-08-23T14:07:15;2.42;;;0.55;;
32641;SDS011;19323;56.072;9.698;2022-08-23T14:09:42;2.45;;;0.45;;
32641;SDS011;19323;56.072;9.698;2022-08-23T14:12:19;3.10;;;0.75;;
32641;SDS011;19323;56.072;9.698;2022-08-23T14:14:48;2.20;;;0.50;;
32641;SDS011;19323;56.072;9.698;2022-08-23T14:17:15;1.77;;;0.82;;
32641;SDS011;19323;56.072;9.698;2022-08-23T14:19:45;2.25;;;0.63;;
32641;SDS011;19323;56.072;9.698;2022-08-23T14:22:34;0.90;;;0.50;;
32641;SDS011;19323;56.072;9.698;2022-08-23T14:25:00;1.80;;;0.52;;
32641;SDS011;19323;56.072;9.698;2022-08-23T14:27:27;2.75;;;0.80;;
32641;SDS011;19323;56.072;9.698;2022-08-23T14:29:53;3.05;;;1.30;;
32641;SDS011;19323;56.072;9.698;2022-08-23T14:32:20;3.22;;;0.90;;
32641;SDS011;19323;56.072;9.698;2022-08-23T14:34:46;2.85;;;0.85;;
32641;SDS011;19323;56.072;9.698;2022-08-23T14:37:13;4.70;;;0.73;;
32641;SDS011;19323;56.072;9.698;2022-08-23T14:40:00;3.10;;;0.75;;
32641;SDS011;19323;56.072;9.698;2022-08-23T14:42:26;6.85;;;0.52;;
32641;SDS011;19323;56.072;9.698;2022-08-23T14:44:53;1.92;;;0.63;;
32641;SDS011;19323;56.072;9.698;2022-08-23T14:47:20;3.10;;;0.90;;
32641;SDS011;19323;56.072;9.698;2022-08-23T14:49:46;2.67;;;1.05;;
32641;SDS011;19323;56.072;9.698;2022-08-23T14:52:18;1.35;;;0.50;;
32641;SDS011;19323;56.072;9.698;2022-08-23T14:54:45;1.30;;;0.75;;
32641;SDS011;19323;56.072;9.698;2022-08-23T14:57:11;1.33;;;0.65;;
32641;SDS011;19323;56.072;9.698;2022-08-23T14:59:38;1.33;;;0.88;;
32641;SDS011;19323;56.072;9.698;2022-08-23T15:02:05;1.27;;;0.50;;
32641;SDS011;19323;56.072;9.698;2022-08-23T15:04:35;3.65;;;0.88;;
32641;SDS011;19323;56.072;9.698;2022-08-23T15:07:03;1.77;;;0.70;;
32641;SDS011;19323;56.072;9.698;2022-08-23T15:09:49;2.47;;;0.43;;
32641;SDS011;19323;56.072;9.698;2022-08-23T15:12:20;2.67;;;0.80;;
32641;SDS011;19323;56.072;9.698;2022-08-23T15:15:09;1.75;;;0.50;;
32641;SDS011;19323;56.072;9.698;2022-08-23T15:17:53;1.30;;;0.80;;
32641;SDS011;19323;56.072;9.698;2022-08-23T15:20:26;2.60;;;0.70;;
32641;SDS011;19323;56.072;9.698;2022-08-23T15:22:58;2.23;;;0.70;;
32641;SDS011;19323;56.072;9.698;2022-08-23T15:25:27;1.60;;;0.70;;
32641;SDS011;19323;56.072;9.698;2022-08-23T15:27:55;1.38;;;0.70;;
32641;SDS011;19323;56.072;9.698;2022-08-23T15:30:22;3.97;;;0.70;;
32641;SDS011;19323;56.072;9.698;2022-08-23T15:32:49;1.95;;;0.80;;
32641;SDS011;19323;56.072;9.698;2022-08-23T15:35:22;3.05;;;0.80;;
32641;SDS011;19323;56.072;9.698;2022-08-23T15:37:50;3.40;;;0.82;;
32641;SDS011;19323;56.072;9.698;2022-08-23T15:40:18;3.60;;;0.90;;
32641;SDS011;19323;56.072;9.698;2022-08-23T15:42:45;3.45;;;0.98;;
32641;SDS011;19323;56.072;9.698;2022-08-23T15:45:12;7.45;;;1.65;;
32641;SDS011;19323;56.072;9.698;2022-08-23T15:47:46;2.03;;;0.60;;
32641;SDS011;19323;56.072;9.698;2022-08-23T15:50:18;4.10;;;1.00;;
32641;SDS011;19323;56.072;9.698;2022-08-23T15:52:47;4.28;;;1.45;;
32641;SDS011;19323;56.072;9.698;2022-08-23T15:55:14;14.07;;;0.93;;
32641;SDS011;19323;56.072;9.698;2022-08-23T15:57:43;4.20;;;1.50;;
32641;SDS011;19323;56.072;9.698;2022-08-23T16:00:12;2.88;;;1.50;;
32641;SDS011;19323;56.072;9.698;2022-08-23T16:02:40;6.97;;;1.42;;
32641;SDS011;19323;56.072;9.698;2022-08-23T16:05:27;3.72;;;0.73;;
32641;SDS011;19323;56.072;9.698;2022-08-23T16:07:54;2.45;;;0.63;;
32641;SDS011;19323;56.072;9.698;2022-08-23T16:10:24;2.33;;;0.70;;
32641;SDS011;19323;56.072;9.698;2022-08-23T16:12:53;3.90;;;0.75;;
32641;SDS011;19323;56.072;9.698;2022-08-23T16:15:20;3.35;;;1.00;;
32641;SDS011;19323;56.072;9.698;2022-08-23T16:17:46;1.92;;;0.70;;
32641;SDS011;19323;56.072;9.698;2022-08-23T16:20:13;2.60;;;0.90;;
32641;SDS011;19323;56.072;9.698;2022-08-23T16:22:40;1.33;;;0.70;;
32641;SDS011;19323;56.072;9.698;2022-08-23T16:25:07;3.55;;;0.55;;
32641;SDS011;19323;56.072;9.698;2022-08-23T16:27:34;2.15;;;1.05;;
32641;SDS011;19323;56.072;9.698;2022-08-23T16:30:00;2.90;;;0.77;;
32641;SDS011;19323;56.072;9.698;2022-08-23T16:32:27;4.70;;;0.88;;
32641;SDS011;19323;56.072;9.698;2022-08-23T16:34:54;4.00;;;0.65;;
32641;SDS011;19323;56.072;9.698;2022-08-23T16:37:20;1.88;;;0.82;;
32641;SDS011;19323;56.072;9.698;2022-08-23T16:39:47;1.30;;;0.40;;
32641;SDS011;19323;56.072;9.698;2022-08-23T16:42:13;1.35;;;0.60;;
32641;SDS011;19323;56.072;9.698;2022-08-23T16:44:41;2.22;;;0.50;;
32641;SDS011;19323;56.072;9.698;2022-08-23T16:47:08;1.55;;;0.73;;
32641;SDS011;19323;56.072;9.698;2022-08-23T16:49:35;4.40;;;0.70;;
32641;SDS011;19323;56.072;9.698;2022-08-23T16:52:02;1.98;;;0.93;;
32641;SDS011;19323;56.072;9.698;2022-08-23T16:54:29;6.90;;;1.15;;
32641;SDS011;19323;56.072;9.698;2022-08-23T16:56:56;1.33;;;0.55;;
32641;SDS011;19323;56.072;9.698;2022-08-23T16:59:22;7.00;;;0.98;;
32641;SDS011;19323;56.072;9.698;2022-08-23T17:01:51;4.43;;;1.00;;
32641;SDS011;19323;56.072;9.698;2022-08-23T17:04:20;2.83;;;0.75;;
32641;SDS011;19323;56.072;9.698;2022-08-23T17:06:55;1.40;;;0.63;;
32641;SDS011;19323;56.072;9.698;2022-08-23T17:09:24;1.90;;;0.70;;